Holy Cross Airport
PAHC : rendu visible

Aérodrome :











RETROUVEZ-NOUS SUR...

 
LOGIN :

S'inscrire | Disclaimer

   EN    FR    IT 

 









Légende :    VFR   VFR Marginal   IFR   IFR Intensif   IFR Très Intensif
Visi : 
Plafond : 
>= 8 km
>= 3000ft
5 à 8 km
1000 à 3000 ft
1500m à 5 km
500 à 1000 ft
800 à 1500m
200 à 500 ft
< 800m
< 200 ft
Symboles :   Orages  Brouillard  Fortes neiges  Fortes précipitations  Vent > 20 kt






- Altitude de l'aérodrome : 70 ft
- Code IATA : HCR


PAHC - Holy Cross

DERNIER METAR :
  • 300956Z AUTO 33011KT 10SM CLR M10/M19 A3018 RMK AO2 SLP223 T11001194 FZRANO

METARs EXPIRÉS :
  • 300856Z AUTO 34017KT 10SM CLR M09/M19 A3018 RMK AO2 SLP222 T10941189 410331139 58004 FZRANO
  • 300756Z AUTO 03011G16KT 10SM CLR M08/M18 A3018 RMK AO2 SLP224 T10831183 FZRANO

TAF N/A



MET'MAP, la Météo Aéronautique d'un coup d'oeil ! - Copyright ORBIFLY Décembre 2007 - Disclaimer

ORBIFLY MET'MAP TEAM :

Programmation & Développement : Alexandra Zaïnal
Sur une idée originale de : Baudouin d'Aumeries
Assistance à la programmation : Marc-Olivier Méhu
Soutien technique & logistique : Manuel Goepfert

Contact : metmap@orbifly.com




SOURCES & CREDITS :

   NOAA       Earth
Advisory